createdAt,value
2023-06-12T00:00:47.035Z,44.50
2023-06-12T00:06:17.612Z,45.06
2023-06-12T00:11:27.489Z,45.39
2023-06-12T00:16:39.173Z,45.96
2023-06-12T00:21:49.298Z,46.04
2023-06-12T00:26:59.354Z,46.24
2023-06-12T00:32:10.448Z,46.58
2023-06-12T00:37:20.336Z,46.73
2023-06-12T00:42:39.688Z,46.92
2023-06-12T00:47:54.378Z,47.26
2023-06-12T00:53:05.882Z,47.65
2023-06-12T00:58:15.554Z,48.00
2023-06-12T01:03:26.746Z,48.24
2023-06-12T01:08:53.805Z,48.41
2023-06-12T01:14:03.551Z,48.63
2023-06-12T01:19:14.357Z,48.58
2023-06-12T01:24:55.278Z,48.70
2023-06-12T01:30:40.535Z,48.90
2023-06-12T01:35:54.644Z,49.10
2023-06-12T01:41:04.522Z,49.81
2023-06-12T01:46:14.256Z,49.92
2023-06-12T01:51:24.117Z,50.41
2023-06-12T01:56:34.201Z,50.93
2023-06-12T02:01:43.985Z,51.04
2023-06-12T02:06:54.009Z,50.79
2023-06-12T02:12:03.977Z,50.81
2023-06-12T02:17:15.464Z,51.01
2023-06-12T02:22:25.251Z,50.78
2023-06-12T02:27:36.077Z,51.03
2023-06-12T02:32:46.319Z,51.21
2023-06-12T02:37:56.093Z,51.87
2023-06-12T02:43:06.245Z,52.12
2023-06-12T02:48:15.942Z,52.08
2023-06-12T02:53:25.723Z,52.73
2023-06-12T02:58:35.364Z,52.37
2023-06-12T03:03:45.474Z,52.76
2023-06-12T03:08:55.291Z,52.96
2023-06-12T03:14:05.260Z,52.81
2023-06-12T03:19:14.968Z,52.00
2023-06-12T03:24:25.536Z,51.68
2023-06-12T03:29:35.435Z,51.10
2023-06-12T03:34:47.642Z,50.65
2023-06-12T03:39:57.924Z,50.27
2023-06-12T03:45:10.165Z,50.24
2023-06-12T03:50:21.193Z,50.38
2023-06-12T03:55:31.098Z,50.94
2023-06-12T04:00:41.081Z,51.37
2023-06-12T04:05:51.019Z,51.80
2023-06-12T04:11:04.188Z,52.16
2023-06-12T04:16:15.054Z,52.56
2023-06-12T04:21:24.984Z,52.77
2023-06-12T04:26:36.060Z,52.42
2023-06-12T04:31:46.293Z,52.72
2023-06-12T04:36:57.912Z,52.20
2023-06-12T04:42:09.855Z,52.11
2023-06-12T04:47:19.799Z,51.90
2023-06-12T04:52:29.804Z,51.99
2023-06-12T04:57:40.851Z,51.67
2023-06-12T05:02:51.493Z,51.72
2023-06-12T05:08:01.705Z,51.33
2023-06-12T05:13:11.706Z,50.92
2023-06-12T05:18:21.624Z,50.69
2023-06-12T05:23:31.513Z,49.88
2023-06-12T05:28:41.919Z,49.38
2023-06-12T05:33:51.963Z,49.19
2023-06-12T05:39:02.311Z,49.01
2023-06-12T05:44:12.575Z,48.87
2023-06-12T05:49:23.239Z,48.38
2023-06-12T05:54:33.326Z,48.05
2023-06-12T05:59:45.024Z,47.71
2023-06-12T06:04:56.017Z,47.41
2023-06-12T06:10:07.038Z,46.85
2023-06-12T06:15:20.722Z,46.72
2023-06-12T06:20:31.708Z,46.21
2023-06-12T06:25:41.830Z,45.82
2023-06-12T06:30:51.738Z,45.06
2023-06-12T06:36:01.834Z,44.73
2023-06-12T06:41:11.890Z,44.21
2023-06-12T06:46:21.832Z,43.97
2023-06-12T06:51:33.448Z,43.39
2023-06-12T06:56:43.217Z,42.94
2023-06-12T07:01:52.962Z,42.13
2023-06-12T07:07:04.537Z,41.64
2023-06-12T07:12:15.289Z,40.34
2023-06-12T07:17:27.652Z,40.18
2023-06-12T07:22:37.674Z,39.40
2023-06-12T07:27:47.995Z,37.71
2023-06-12T07:32:57.966Z,37.86
2023-06-12T07:38:08.196Z,37.60
2023-06-12T07:43:18.228Z,37.19
2023-06-12T07:48:28.438Z,35.36
2023-06-12T07:53:39.570Z,34.44
2023-06-12T07:58:50.143Z,33.69
2023-06-12T08:04:00.048Z,32.55
2023-06-12T08:09:11.122Z,30.56
2023-06-12T08:14:21.073Z,30.78
2023-06-12T08:19:30.946Z,30.42
2023-06-12T08:24:43.142Z,30.92
2023-06-12T08:29:52.835Z,30.96
2023-06-12T08:35:02.607Z,30.25
2023-06-12T08:40:15.137Z,30.01
2023-06-12T08:45:29.558Z,30.22
2023-06-12T08:50:42.293Z,29.57
2023-06-12T08:55:57.271Z,29.67
2023-06-12T09:01:09.824Z,29.33
2023-06-12T09:06:23.356Z,29.11
2023-06-12T09:11:36.909Z,28.21
2023-06-12T09:16:52.058Z,28.41
2023-06-12T09:22:02.059Z,28.27
2023-06-12T09:27:13.934Z,27.92
2023-06-12T09:32:30.699Z,27.71
2023-06-12T09:37:47.511Z,27.60
2023-06-12T09:42:57.406Z,27.33
2023-06-12T09:48:12.437Z,27.24
2023-06-12T09:53:24.454Z,26.91
2023-06-12T09:58:36.423Z,26.58
2023-06-12T10:03:49.888Z,26.36
2023-06-12T10:09:00.957Z,26.28
2023-06-12T10:14:11.161Z,25.65
2023-06-12T10:19:21.097Z,25.85
2023-06-12T10:24:31.453Z,25.56
2023-06-12T10:29:43.071Z,25.60
2023-06-12T10:34:57.056Z,25.49
2023-06-12T10:40:21.580Z,25.39
2023-06-12T10:45:35.340Z,25.28
2023-06-12T10:50:50.736Z,25.42
2023-06-12T10:56:10.077Z,25.63
2023-06-12T11:01:21.667Z,25.80
2023-06-12T11:06:34.334Z,25.49
2023-06-12T11:11:52.322Z,25.32
2023-06-12T11:17:05.460Z,25.22
2023-06-12T11:22:16.019Z,25.22
2023-06-12T11:27:29.668Z,25.13
2023-06-12T11:32:39.539Z,25.03
2023-06-12T11:43:02.474Z,25.11
2023-06-12T11:53:28.723Z,24.44
2023-06-12T11:58:46.011Z,24.52
2023-06-12T12:04:04.896Z,24.15
2023-06-12T12:09:25.150Z,24.04
2023-06-12T12:14:35.798Z,23.53
2023-06-12T12:19:45.927Z,23.24
2023-06-12T12:25:01.226Z,22.83
2023-06-12T12:30:15.805Z,22.95
2023-06-12T12:35:29.085Z,22.64
2023-06-12T12:40:38.908Z,22.92
2023-06-12T12:45:48.512Z,22.99
2023-06-12T12:51:09.136Z,22.65
2023-06-12T12:56:20.482Z,22.34
2023-06-12T13:01:30.218Z,22.69
2023-06-12T13:06:40.346Z,22.76
2023-06-12T13:11:50.094Z,22.90
2023-06-12T13:17:00.615Z,22.96
2023-06-12T13:22:12.857Z,22.66
2023-06-12T13:27:23.197Z,22.66
2023-06-12T13:32:35.094Z,22.78
2023-06-12T13:37:45.044Z,22.53
2023-06-12T13:42:54.775Z,22.69
2023-06-12T13:48:05.085Z,22.85
2023-06-12T13:53:14.776Z,22.79
2023-06-12T13:58:24.513Z,22.75
2023-06-12T14:03:34.288Z,22.64
2023-06-12T14:08:44.293Z,22.49
2023-06-12T14:13:54.165Z,22.44
2023-06-12T14:19:03.872Z,22.45
2023-06-12T14:24:27.889Z,22.58
2023-06-12T14:29:43.906Z,22.27
2023-06-12T14:34:53.654Z,22.05
2023-06-12T14:40:03.513Z,21.88
2023-06-12T14:45:15.258Z,21.78
2023-06-12T14:50:25.401Z,21.68
2023-06-12T14:55:35.807Z,21.56
2023-06-12T15:00:46.601Z,21.54
2023-06-12T15:05:57.054Z,21.28
2023-06-12T15:11:06.788Z,21.20
2023-06-12T15:16:16.800Z,21.19
2023-06-12T15:21:26.600Z,21.15
2023-06-12T15:26:36.277Z,21.22
2023-06-12T15:31:48.439Z,21.07
2023-06-12T15:36:58.227Z,20.61
2023-06-12T15:42:11.614Z,20.17
2023-06-12T15:47:21.861Z,19.92
2023-06-12T15:52:31.726Z,19.89
2023-06-12T15:57:41.497Z,19.74
2023-06-12T16:02:52.250Z,19.72
2023-06-12T16:08:02.436Z,19.64
2023-06-12T16:13:12.303Z,19.64
2023-06-12T16:18:23.920Z,19.39
2023-06-12T16:23:33.811Z,19.10
2023-06-12T16:28:43.748Z,18.53
2023-06-12T16:33:53.584Z,18.43
2023-06-12T16:39:04.729Z,18.15
2023-06-12T16:44:15.552Z,18.19
2023-06-12T16:49:25.276Z,18.40
2023-06-12T16:54:35.604Z,18.62
2023-06-12T16:59:45.860Z,18.27
2023-06-12T17:04:56.459Z,18.47
2023-06-12T17:10:07.477Z,18.98
2023-06-12T17:15:17.825Z,19.52
2023-06-12T17:20:28.024Z,20.02
2023-06-12T17:25:38.814Z,20.38
2023-06-12T17:30:48.514Z,20.80
2023-06-12T17:35:59.409Z,21.57
2023-06-12T17:41:09.234Z,22.43
2023-06-12T17:46:21.283Z,22.94
2023-06-12T17:51:31.450Z,23.19
2023-06-12T17:56:41.572Z,23.55
2023-06-12T18:01:52.721Z,24.18
2023-06-12T18:07:02.783Z,24.59
2023-06-12T18:12:14.569Z,24.85
2023-06-12T18:17:24.620Z,25.25
2023-06-12T18:22:34.505Z,25.55
2023-06-12T18:27:44.683Z,25.90
2023-06-12T18:32:54.558Z,26.16
2023-06-12T18:38:05.757Z,26.47
2023-06-12T18:43:20.223Z,26.76
2023-06-12T18:48:30.861Z,27.11
2023-06-12T18:53:40.546Z,27.42
2023-06-12T18:58:50.479Z,27.41
2023-06-12T19:04:00.405Z,27.80
2023-06-12T19:09:13.481Z,27.81
2023-06-12T19:14:24.253Z,28.53
2023-06-12T19:19:34.302Z,29.74
2023-06-12T19:24:44.121Z,32.76
2023-06-12T19:29:54.044Z,34.94
2023-06-12T19:35:04.193Z,36.55
2023-06-12T19:40:17.971Z,37.83
2023-06-12T19:45:28.034Z,38.90
2023-06-12T19:50:37.756Z,40.09
2023-06-12T19:55:50.182Z,41.13
2023-06-12T20:01:03.294Z,41.71
2023-06-12T20:06:13.675Z,41.85
2023-06-12T20:11:24.951Z,42.06
2023-06-12T20:16:36.587Z,42.42
2023-06-12T20:21:50.574Z,42.81
2023-06-12T20:27:00.618Z,43.02
2023-06-12T20:32:13.015Z,42.77
2023-06-12T20:37:23.157Z,43.04
2023-06-12T20:42:33.032Z,43.32
2023-06-12T20:47:42.997Z,43.26
2023-06-12T20:52:52.909Z,43.47
2023-06-12T20:58:02.817Z,43.58
2023-06-12T21:03:12.937Z,43.74
2023-06-12T21:08:22.757Z,44.05
2023-06-12T21:13:32.636Z,44.14
2023-06-12T21:18:42.604Z,44.22
2023-06-12T21:23:52.741Z,44.31
2023-06-12T21:29:02.977Z,44.60
2023-06-12T21:34:13.312Z,44.65
2023-06-12T21:46:17.678Z,45.17
2023-06-12T21:51:27.659Z,44.83
2023-06-12T21:56:41.138Z,44.76
2023-06-12T22:01:51.621Z,44.65
2023-06-12T22:07:01.506Z,44.94
2023-06-12T22:12:13.175Z,45.40
2023-06-12T22:17:23.402Z,45.87
2023-06-12T22:22:33.652Z,46.17
2023-06-12T22:27:44.099Z,46.28
2023-06-12T22:32:54.318Z,46.59
2023-06-12T22:38:04.378Z,46.71
2023-06-12T22:43:16.534Z,46.75
2023-06-12T22:48:31.872Z,47.38
2023-06-12T22:53:42.148Z,47.83
2023-06-12T22:58:52.800Z,48.19
2023-06-12T23:04:04.392Z,48.21
2023-06-12T23:09:16.546Z,48.47
2023-06-12T23:14:27.167Z,48.87
2023-06-12T23:19:37.193Z,49.01
2023-06-12T23:24:48.231Z,49.53
2023-06-12T23:29:58.451Z,49.23
2023-06-12T23:35:09.830Z,49.35
2023-06-12T23:40:20.537Z,49.13
2023-06-12T23:45:30.521Z,49.29
2023-06-12T23:50:41.992Z,49.58
2023-06-12T23:55:52.143Z,49.59
